createdAt,value
2023-04-29T00:03:48.672Z,33.47
2023-04-29T00:08:55.818Z,33.46
2023-04-29T00:14:03.239Z,33.39
2023-04-29T00:19:10.476Z,33.36
2023-04-29T00:24:17.751Z,33.22
2023-04-29T00:29:25.239Z,33.12
2023-04-29T00:34:32.285Z,33.15
2023-04-29T00:39:39.583Z,33.08
2023-04-29T00:44:52.858Z,33.01
2023-04-29T00:50:00.076Z,32.95
2023-04-29T00:55:07.410Z,32.99
2023-04-29T01:00:14.730Z,32.91
2023-04-29T01:05:21.986Z,32.77
2023-04-29T01:10:36.061Z,32.72
2023-04-29T01:16:24.887Z,32.90
2023-04-29T01:27:35.171Z,32.81
2023-04-29T01:33:09.467Z,32.80
2023-04-29T01:39:18.032Z,32.80
2023-04-29T01:43:56.559Z,32.82
2023-04-29T01:49:16.788Z,32.81
2023-04-29T01:54:41.276Z,33.00
2023-04-29T01:59:47.038Z,33.18
2023-04-29T02:05:58.484Z,33.23
2023-04-29T02:10:26.131Z,33.33
2023-04-29T02:16:17.833Z,33.50
2023-04-29T02:22:51.625Z,33.53
2023-04-29T02:26:15.458Z,33.63
2023-04-29T02:32:02.688Z,33.82
2023-04-29T02:38:07.046Z,33.81
2023-04-29T02:43:24.608Z,34.00
2023-04-29T02:48:46.535Z,34.08
2023-04-29T02:54:34.890Z,34.13
2023-04-29T02:59:54.452Z,34.24
2023-04-29T03:05:37.168Z,34.31
2023-04-29T03:11:25.435Z,34.38
2023-04-29T03:16:58.618Z,34.50
2023-04-29T03:22:18.723Z,34.57
2023-04-29T03:27:56.408Z,34.62
2023-04-29T03:33:29.527Z,34.69
2023-04-29T03:39:13.023Z,34.73
2023-04-29T03:45:01.345Z,34.79
2023-04-29T03:50:43.805Z,34.86
2023-04-29T03:55:57.092Z,34.97
2023-04-29T04:01:09.481Z,34.99
2023-04-29T04:11:47.950Z,35.03
2023-04-29T04:16:52.394Z,35.05
2023-04-29T04:22:05.272Z,35.09
2023-04-29T04:27:31.062Z,35.12
2023-04-29T04:32:40.301Z,35.14
2023-04-29T04:37:52.587Z,35.22
2023-04-29T04:43:39.926Z,35.24
2023-04-29T04:48:54.749Z,35.24
2023-04-29T04:54:17.796Z,35.34
2023-04-29T04:59:38.738Z,35.39
2023-04-29T05:05:11.916Z,35.42
2023-04-29T05:11:22.938Z,35.51
2023-04-29T05:16:31.748Z,35.58
2023-04-29T05:21:44.331Z,35.57
2023-04-29T05:27:02.629Z,35.61
2023-04-29T05:32:16.003Z,35.64
2023-04-29T05:37:38.795Z,35.66
2023-04-29T05:43:01.430Z,35.67
2023-04-29T05:48:32.930Z,35.73
2023-04-29T05:54:03.352Z,35.73
2023-04-29T05:59:14.737Z,35.77
2023-04-29T06:04:27.173Z,35.81
2023-04-29T06:09:39.723Z,36.10
2023-04-29T06:14:49.943Z,38.06
2023-04-29T06:20:05.045Z,36.58
2023-04-29T06:25:14.638Z,36.65
2023-04-29T06:30:30.148Z,36.77
2023-04-29T06:35:53.099Z,36.45
2023-04-29T06:41:31.916Z,36.34
2023-04-29T06:46:37.830Z,36.38
2023-04-29T06:52:28.249Z,36.50
2023-04-29T07:09:18.512Z,36.56
2023-04-29T07:14:18.501Z,36.50
2023-04-29T07:14:35.321Z,36.50
2023-04-29T07:19:19.495Z,36.54
2023-04-29T07:19:39.226Z,36.67
2023-04-29T07:24:47.156Z,38.56
2023-04-29T07:30:09.838Z,37.19
2023-04-29T07:36:49.273Z,36.97
2023-04-29T07:40:35.862Z,36.81
2023-04-29T07:45:59.152Z,36.84
2023-04-29T07:51:59.615Z,36.96
2023-04-29T07:56:25.168Z,36.80
2023-04-29T08:01:35.698Z,36.80
2023-04-29T08:06:43.425Z,36.84
2023-04-29T08:12:38.461Z,36.82
2023-04-29T08:17:09.821Z,36.86
2023-04-29T08:22:17.443Z,36.81
2023-04-29T08:27:30.212Z,36.90
2023-04-29T08:33:14.156Z,36.91
2023-04-29T08:38:30.048Z,36.96
2023-04-29T08:44:28.063Z,36.96
2023-04-29T08:48:55.337Z,36.99
2023-04-29T08:55:42.593Z,37.00
2023-04-29T09:00:28.107Z,37.05
2023-04-29T09:04:53.459Z,37.02
2023-04-29T09:10:19.894Z,37.04
2023-04-29T09:15:25.459Z,37.04
2023-04-29T09:22:22.575Z,36.98
2023-04-29T09:25:46.874Z,36.99
2023-04-29T09:30:59.243Z,37.14
2023-04-29T09:37:56.181Z,36.97
2023-04-29T09:42:50.943Z,36.96
2023-04-29T09:48:05.035Z,36.92
2023-04-29T09:54:02.321Z,36.94
2023-04-29T09:59:16.712Z,36.87
2023-04-29T10:11:59.948Z,36.91
2023-04-29T10:15:11.022Z,36.90
2023-04-29T10:20:18.825Z,38.27
2023-04-29T10:26:01.679Z,38.69
2023-04-29T10:31:10.415Z,39.58
2023-04-29T10:36:18.011Z,41.43
2023-04-29T10:41:25.733Z,42.20
2023-04-29T10:46:42.947Z,43.36
2023-04-29T10:51:50.436Z,39.62
2023-04-29T10:56:57.997Z,40.55
2023-04-29T11:02:05.526Z,42.29
2023-04-29T11:07:27.862Z,40.00
2023-04-29T11:13:22.285Z,39.77
2023-04-29T11:17:57.862Z,39.37
2023-04-29T11:23:54.291Z,39.41
2023-04-29T11:28:27.466Z,39.57
2023-04-29T11:33:34.790Z,40.21
2023-04-29T11:38:41.897Z,39.59
2023-04-29T11:43:49.072Z,39.16
2023-04-29T11:48:56.265Z,39.56
2023-04-29T11:54:04.301Z,39.17
2023-04-29T11:59:11.133Z,39.29
2023-04-29T12:04:18.908Z,39.54
2023-04-29T12:09:25.515Z,38.85
2023-04-29T12:14:32.775Z,38.61
2023-04-29T12:19:40.013Z,38.50
2023-04-29T12:24:47.265Z,38.48
2023-04-29T12:29:54.454Z,38.56
2023-04-29T12:35:01.702Z,38.44
2023-04-29T12:40:09.036Z,38.11
2023-04-29T12:45:16.243Z,37.96
2023-04-29T12:50:23.531Z,37.98
2023-04-29T12:55:30.864Z,38.06
2023-04-29T13:00:38.190Z,37.93
2023-04-29T13:05:45.287Z,37.61
2023-04-29T13:10:52.627Z,37.62
2023-04-29T13:15:59.848Z,37.50
2023-04-29T13:21:07.016Z,37.33
2023-04-29T13:26:14.194Z,37.75
2023-04-29T13:31:21.484Z,37.59
2023-04-29T13:36:28.867Z,37.41
2023-04-29T13:41:36.137Z,37.24
2023-04-29T13:46:47.619Z,37.23
2023-04-29T13:52:42.909Z,36.94
2023-04-29T13:57:30.207Z,36.91
2023-04-29T14:02:24.360Z,36.98
2023-04-29T14:07:15.430Z,36.91
2023-04-29T14:12:22.905Z,37.12
2023-04-29T14:17:30.220Z,37.53
2023-04-29T14:22:37.490Z,37.69
2023-04-29T14:27:44.741Z,37.57
2023-04-29T14:32:51.947Z,37.81
2023-04-29T14:37:59.260Z,37.40
2023-04-29T14:43:06.510Z,37.44
2023-04-29T14:48:13.851Z,37.53
2023-04-29T14:53:21.221Z,37.38
2023-04-29T14:58:31.468Z,37.21
2023-04-29T15:08:46.039Z,38.16
2023-04-29T15:13:53.235Z,38.19
2023-04-29T15:19:00.524Z,38.39
2023-04-29T15:24:07.825Z,38.07
2023-04-29T15:29:15.045Z,38.05
2023-04-29T15:34:22.266Z,38.15
2023-04-29T15:39:29.569Z,38.17
2023-04-29T15:44:36.823Z,37.88
2023-04-29T15:49:44.281Z,37.98
2023-04-29T15:54:51.636Z,37.96
2023-04-29T15:59:58.826Z,37.43
2023-04-29T16:05:06.068Z,37.49
2023-04-29T16:10:13.384Z,37.41
2023-04-29T16:15:20.646Z,37.23
2023-04-29T16:20:27.926Z,37.13
2023-04-29T16:25:35.274Z,37.08
2023-04-29T16:30:42.409Z,37.02
2023-04-29T16:35:49.711Z,37.01
2023-04-29T16:40:56.984Z,36.94
2023-04-29T16:46:04.552Z,36.97
2023-04-29T16:51:11.824Z,36.93
2023-04-29T16:56:19.060Z,36.81
2023-04-29T17:01:26.313Z,36.84
2023-04-29T17:06:33.736Z,36.70
2023-04-29T17:11:40.891Z,36.67
2023-04-29T17:16:48.093Z,36.72
2023-04-29T17:21:55.451Z,36.75
2023-04-29T17:27:02.947Z,36.76
2023-04-29T17:32:10.509Z,36.84
2023-04-29T17:37:17.838Z,36.98
2023-04-29T17:42:25.232Z,36.84
2023-04-29T17:47:32.549Z,37.15
2023-04-29T17:52:39.802Z,37.13
2023-04-29T17:57:47.124Z,37.36
2023-04-29T18:02:54.900Z,37.33
2023-04-29T18:08:02.164Z,37.41
2023-04-29T18:13:09.729Z,37.28
2023-04-29T18:18:17.541Z,37.17
2023-04-29T18:23:25.155Z,37.29
2023-04-29T18:28:32.613Z,37.49
2023-04-29T18:33:39.847Z,37.57
2023-04-29T18:38:48.120Z,37.59
2023-04-29T18:43:55.346Z,37.76
2023-04-29T18:49:02.538Z,38.19
2023-04-29T18:54:09.767Z,37.86
2023-04-29T18:59:17.331Z,37.51
2023-04-29T19:04:24.741Z,37.38
2023-04-29T19:09:31.937Z,37.79
2023-04-29T19:14:39.456Z,38.00
2023-04-29T19:19:47.060Z,38.11
2023-04-29T19:24:54.560Z,37.72
2023-04-29T19:30:02.156Z,37.73
2023-04-29T19:35:09.416Z,37.61
2023-04-29T19:40:16.916Z,37.41
2023-04-29T19:45:24.631Z,37.34
2023-04-29T19:50:32.229Z,37.39
2023-04-29T19:55:39.770Z,37.59
2023-04-29T20:00:47.336Z,37.59
2023-04-29T20:05:54.703Z,37.62
2023-04-29T20:11:01.981Z,37.88
2023-04-29T20:16:09.436Z,37.78
2023-04-29T20:21:16.858Z,37.68
2023-04-29T20:26:24.341Z,37.89
2023-04-29T20:31:31.566Z,37.91
2023-04-29T20:36:38.714Z,37.75
2023-04-29T20:41:45.945Z,37.88
2023-04-29T20:46:53.465Z,37.74
2023-04-29T20:52:00.374Z,37.71
2023-04-29T20:57:07.537Z,37.81
2023-04-29T21:02:16.967Z,37.71
2023-04-29T21:07:22.654Z,37.66
2023-04-29T21:12:29.957Z,37.57
2023-04-29T21:17:37.221Z,37.43
2023-04-29T21:22:44.389Z,37.33
2023-04-29T21:27:51.634Z,37.28
2023-04-29T21:32:58.938Z,36.90
2023-04-29T21:38:06.154Z,36.92
2023-04-29T21:43:14.420Z,36.72
2023-04-29T21:48:21.652Z,36.50
2023-04-29T21:53:29.129Z,36.37
2023-04-29T21:58:36.404Z,36.45
2023-04-29T22:03:43.601Z,36.32
2023-04-29T22:08:50.857Z,36.11
2023-04-29T22:13:58.059Z,35.93
2023-04-29T22:19:05.299Z,35.72
2023-04-29T22:24:12.500Z,35.58
2023-04-29T22:29:19.796Z,35.43
2023-04-29T22:34:27.131Z,35.22
2023-04-29T22:39:34.384Z,35.13
2023-04-29T22:44:41.762Z,34.95
2023-04-29T22:49:48.965Z,34.89
2023-04-29T22:54:56.225Z,34.75
2023-04-29T23:00:03.422Z,34.56
2023-04-29T23:05:10.798Z,34.65
2023-04-29T23:10:17.911Z,34.57
2023-04-29T23:15:25.296Z,34.30
2023-04-29T23:20:32.593Z,34.26
2023-04-29T23:25:39.870Z,34.29
2023-04-29T23:30:47.146Z,34.16
2023-04-29T23:35:54.486Z,34.05
2023-04-29T23:41:01.725Z,34.15
2023-04-29T23:46:09.054Z,34.18
2023-04-29T23:51:16.446Z,33.98
2023-04-29T23:56:23.675Z,33.93
